createdAt,value
2018-03-01T00:02:12.995Z,74.10
2018-03-01T00:04:42.700Z,74.20
2018-03-01T00:07:12.365Z,74.30
2018-03-01T00:09:42.794Z,74.50
2018-03-01T00:12:12.450Z,74.40
2018-03-01T00:14:42.153Z,74.50
2018-03-01T00:17:11.891Z,74.50
2018-03-01T00:19:41.601Z,74.40
2018-03-01T00:22:11.743Z,74.20
2018-03-01T00:24:41.435Z,73.70
2018-03-01T00:27:11.146Z,72.90
2018-03-01T00:29:41.635Z,72.60
2018-03-01T00:32:11.359Z,72.60
2018-03-01T00:34:41.099Z,72.40
2018-03-01T00:37:11.532Z,72.30
2018-03-01T00:39:42.043Z,72.00
2018-03-01T00:42:12.555Z,71.00
2018-03-01T00:44:42.242Z,71.00
2018-03-01T00:47:12.002Z,70.70
2018-03-01T00:49:42.411Z,69.00
2018-03-01T00:52:12.063Z,69.00
2018-03-01T00:54:41.799Z,69.00
2018-03-01T00:57:11.440Z,68.20
2018-03-01T00:59:41.185Z,68.20
2018-03-01T01:02:10.924Z,67.90
2018-03-01T01:04:41.465Z,66.50
2018-03-01T01:07:11.239Z,66.50
2018-03-01T01:09:41.259Z,65.20
2018-03-01T01:12:10.947Z,65.20
2018-03-01T01:14:42.357Z,64.20
2018-03-01T01:17:12.130Z,64.20
2018-03-01T01:19:41.809Z,64.40
2018-03-01T01:22:12.256Z,63.90
2018-03-01T01:24:41.914Z,63.80
2018-03-01T01:27:11.583Z,63.60
2018-03-01T01:29:42.298Z,63.90
2018-03-01T01:32:13.833Z,63.70
2018-03-01T01:34:43.521Z,63.70
2018-03-01T01:37:13.222Z,63.90
2018-03-01T01:39:42.884Z,63.70
2018-03-01T01:42:12.557Z,62.60
2018-03-01T01:44:42.376Z,61.60
2018-03-01T01:47:12.055Z,62.00
2018-03-01T01:49:42.934Z,62.30
2018-03-01T01:52:13.368Z,61.00
2018-03-01T01:54:43.808Z,61.10
2018-03-01T01:57:13.558Z,61.00
2018-03-01T01:59:43.221Z,60.30
2018-03-01T02:02:13.713Z,59.90
2018-03-01T02:04:43.437Z,59.80
2018-03-01T02:07:13.291Z,59.80
2018-03-01T02:09:43.120Z,59.60
2018-03-01T02:12:12.889Z,59.10
2018-03-01T02:14:42.637Z,59.30
2018-03-01T02:17:12.391Z,59.60
2018-03-01T02:19:43.365Z,58.80
2018-03-01T02:22:13.171Z,58.80
2018-03-01T02:24:42.856Z,59.00
2018-03-01T02:27:12.486Z,58.70
2018-03-01T02:29:42.933Z,58.00
2018-03-01T02:32:12.721Z,58.00
2018-03-01T02:34:42.434Z,57.20
2018-03-01T02:37:12.194Z,56.00
2018-03-01T02:39:42.258Z,56.90
2018-03-01T02:42:12.689Z,57.20
2018-03-01T02:44:43.141Z,57.40
2018-03-01T02:47:12.824Z,57.40
2018-03-01T02:49:42.519Z,57.60
2018-03-01T02:52:13.013Z,58.00
2018-03-01T02:54:42.745Z,57.90
2018-03-01T02:57:13.344Z,57.80
2018-03-01T02:59:43.394Z,57.80
2018-03-01T03:02:13.131Z,57.90
2018-03-01T03:04:42.856Z,58.70
2018-03-01T03:07:12.630Z,58.40
2018-03-01T03:09:43.102Z,58.60
2018-03-01T03:12:12.766Z,58.60
2018-03-01T03:14:42.446Z,58.40
2018-03-01T03:17:12.165Z,58.70
2018-03-01T03:19:41.861Z,58.80
2018-03-01T03:22:11.544Z,58.90
2018-03-01T03:24:41.261Z,58.80
2018-03-01T03:27:10.962Z,58.50
2018-03-01T03:29:40.630Z,58.70
2018-03-01T03:32:11.118Z,58.50
2018-03-01T03:34:40.806Z,58.50
2018-03-01T03:37:10.476Z,58.50
2018-03-01T03:39:40.372Z,58.40
2018-03-01T03:42:10.066Z,58.20
2018-03-01T03:44:39.823Z,58.50
2018-03-01T03:47:10.256Z,57.80
2018-03-01T03:49:40.800Z,57.50
2018-03-01T03:52:10.577Z,57.70
2018-03-01T03:54:41.054Z,57.40
2018-03-01T03:57:10.722Z,57.30
2018-03-01T03:59:41.818Z,57.20
2018-03-01T04:02:11.490Z,57.20
2018-03-01T04:04:41.176Z,57.20
2018-03-01T04:07:10.928Z,56.50
2018-03-01T04:09:40.632Z,56.00
2018-03-01T04:12:10.326Z,55.70
2018-03-01T04:14:40.836Z,56.60
2018-03-01T04:17:11.333Z,57.10
2018-03-01T04:19:41.214Z,56.50
2018-03-01T04:22:11.355Z,56.40
2018-03-01T04:24:41.056Z,55.80
2018-03-01T04:27:10.814Z,56.10
2018-03-01T04:29:40.805Z,56.30
2018-03-01T04:32:10.539Z,56.50
2018-03-01T04:34:40.268Z,56.60
2018-03-01T04:37:09.940Z,55.80
2018-03-01T04:39:39.686Z,56.70
2018-03-01T04:42:10.153Z,56.10
2018-03-01T04:44:39.821Z,56.10
2018-03-01T04:47:10.414Z,55.80
2018-03-01T04:49:40.106Z,55.80
2018-03-01T04:52:09.813Z,55.70
2018-03-01T04:54:39.478Z,55.80
2018-03-01T04:57:10.018Z,55.50
2018-03-01T04:59:40.227Z,55.50
2018-03-01T05:02:09.922Z,55.60
2018-03-01T05:04:39.666Z,55.70
2018-03-01T05:07:10.452Z,55.90
2018-03-01T05:09:40.093Z,55.80
2018-03-01T05:12:10.552Z,55.90
2018-03-01T05:14:40.237Z,55.90
2018-03-01T05:17:10.659Z,56.00
2018-03-01T05:19:41.162Z,55.80
2018-03-01T05:22:10.870Z,56.30
2018-03-01T05:24:40.574Z,55.60
2018-03-01T05:27:10.378Z,56.10
2018-03-01T05:29:40.112Z,55.90
2018-03-01T05:32:10.550Z,56.30
2018-03-01T05:34:41.284Z,57.10
2018-03-01T05:37:11.737Z,56.80
2018-03-01T05:39:41.534Z,56.80
2018-03-01T05:42:11.241Z,57.10
2018-03-01T05:44:42.645Z,55.70
2018-03-01T05:47:12.874Z,55.70
2018-03-01T05:49:42.635Z,55.50
2018-03-01T05:52:12.293Z,55.00
2018-03-01T05:54:42.119Z,54.90
2018-03-01T05:57:11.777Z,54.60
2018-03-01T05:59:41.468Z,54.90
2018-03-01T06:02:11.350Z,55.70
2018-03-01T06:04:41.478Z,55.80
2018-03-01T06:07:12.242Z,55.90
2018-03-01T06:09:41.921Z,55.80
2018-03-01T06:12:12.327Z,55.90
2018-03-01T06:14:42.814Z,55.90
2018-03-01T06:17:12.893Z,56.30
2018-03-01T06:19:42.687Z,56.90
2018-03-01T06:22:14.338Z,57.30
2018-03-01T06:24:44.083Z,57.20
2018-03-01T06:27:14.529Z,57.70
2018-03-01T06:29:44.854Z,57.60
2018-03-01T06:32:14.488Z,56.90
2018-03-01T06:34:44.607Z,57.60
2018-03-01T06:37:14.303Z,58.50
2018-03-01T06:39:44.418Z,59.20
2018-03-01T06:42:14.493Z,59.30
2018-03-01T06:44:45.031Z,58.40
2018-03-01T06:47:14.883Z,58.30
2018-03-01T06:49:44.659Z,58.20
2018-03-01T06:52:15.042Z,57.70
2018-03-01T06:54:45.717Z,57.70
2018-03-01T06:57:16.202Z,58.10
2018-03-01T06:59:45.894Z,58.10
2018-03-01T07:02:15.572Z,57.80
2018-03-01T07:04:45.284Z,57.60
2018-03-01T07:07:15.006Z,57.00
2018-03-01T07:09:44.683Z,57.80
2018-03-01T07:12:15.112Z,56.90
2018-03-01T07:14:45.548Z,57.10
2018-03-01T07:17:16.007Z,57.30
2018-03-01T07:19:45.693Z,57.20
2018-03-01T07:22:15.865Z,56.20
2018-03-01T07:24:45.635Z,55.80
2018-03-01T07:27:15.765Z,56.20
2018-03-01T07:29:45.437Z,56.30
2018-03-01T07:32:15.870Z,55.70
2018-03-01T07:34:46.737Z,56.10
2018-03-01T07:37:16.413Z,56.00
2018-03-01T07:39:48.146Z,56.50
2018-03-01T07:42:18.681Z,56.60
2018-03-01T07:44:48.416Z,56.60
2018-03-01T07:47:18.125Z,56.70
2018-03-01T07:49:48.565Z,56.90
2018-03-01T07:52:18.805Z,56.90
2018-03-01T07:54:48.431Z,57.10
2018-03-01T07:57:18.603Z,57.30
2018-03-01T07:59:48.379Z,57.60
2018-03-01T08:02:18.139Z,57.60
2018-03-01T08:04:47.821Z,57.50
2018-03-01T08:07:18.289Z,57.60
2018-03-01T08:09:49.461Z,57.50
2018-03-01T08:12:19.248Z,57.20
2018-03-01T08:14:48.925Z,56.90
2018-03-01T08:17:18.667Z,57.00
2018-03-01T08:19:48.370Z,57.00
2018-03-01T08:22:18.812Z,57.00
2018-03-01T08:24:48.494Z,56.90
2018-03-01T08:27:18.220Z,56.90
2018-03-01T08:29:47.929Z,56.60
2018-03-01T08:32:17.706Z,56.80
2018-03-01T08:34:48.192Z,57.40
2018-03-01T08:37:17.968Z,57.40
2018-03-01T08:39:47.662Z,57.50
2018-03-01T08:42:17.363Z,57.50
2018-03-01T08:44:48.247Z,57.10
2018-03-01T08:47:17.981Z,57.10
2018-03-01T08:49:47.700Z,57.20
2018-03-01T08:52:17.492Z,57.20
2018-03-01T08:54:47.534Z,56.90
2018-03-01T08:57:18.003Z,56.70
2018-03-01T08:59:47.742Z,56.70
2018-03-01T09:02:18.262Z,56.70
2018-03-01T09:04:48.761Z,56.40
2018-03-01T09:09:52.355Z,56.10
2018-03-01T09:12:22.131Z,56.30
2018-03-01T09:14:51.880Z,55.80
2018-03-01T09:17:21.663Z,55.90
2018-03-01T09:19:51.358Z,56.50
2018-03-01T09:22:21.136Z,55.90
2018-03-01T09:24:50.826Z,56.10
2018-03-01T09:27:21.408Z,56.60
2018-03-01T09:29:51.162Z,56.50
2018-03-01T09:32:21.718Z,56.70
2018-03-01T09:34:51.384Z,56.70
2018-03-01T09:37:21.112Z,57.00
2018-03-01T09:39:51.905Z,57.70
2018-03-01T09:42:21.590Z,57.60
2018-03-01T09:44:51.283Z,57.90
2018-03-01T09:47:20.937Z,58.10
2018-03-01T09:49:50.632Z,58.40
2018-03-01T09:52:20.401Z,58.70
2018-03-01T09:54:50.917Z,59.10
2018-03-01T09:57:21.380Z,59.30
2018-03-01T09:59:51.088Z,59.30
2018-03-01T10:02:20.797Z,59.50
2018-03-01T10:04:50.442Z,59.30
2018-03-01T10:07:20.180Z,59.30
2018-03-01T10:09:50.615Z,58.80
2018-03-01T10:12:21.143Z,58.60
2018-03-01T10:14:51.780Z,58.30
2018-03-01T10:17:22.320Z,58.20
2018-03-01T10:19:52.017Z,58.20
2018-03-01T10:22:22.476Z,58.10
2018-03-01T10:24:52.290Z,58.10
2018-03-01T10:27:22.123Z,58.10
2018-03-01T10:29:51.904Z,58.20
2018-03-01T10:32:21.735Z,58.40
2018-03-01T10:34:52.250Z,58.30
2018-03-01T10:37:22.217Z,58.30
2018-03-01T10:39:51.903Z,57.90
2018-03-01T10:42:21.638Z,57.70
2018-03-01T10:44:52.125Z,57.50
2018-03-01T10:47:21.871Z,57.40
2018-03-01T10:49:52.720Z,57.20
2018-03-01T10:52:22.491Z,57.20
2018-03-01T10:54:52.642Z,57.60
2018-03-01T10:57:22.397Z,58.60
2018-03-01T10:59:52.109Z,59.20
2018-03-01T11:02:21.853Z,59.70
2018-03-01T11:04:51.570Z,61.00
2018-03-01T11:07:21.815Z,60.50
2018-03-01T11:09:51.572Z,60.80
2018-03-01T11:12:21.413Z,60.80
2018-03-01T11:14:51.121Z,60.90
2018-03-01T11:17:20.809Z,60.90
2018-03-01T11:19:51.384Z,61.60
2018-03-01T11:22:21.890Z,61.60
2018-03-01T11:24:51.638Z,61.60
2018-03-01T11:27:22.178Z,62.00
2018-03-01T11:29:52.011Z,62.00
2018-03-01T11:32:21.748Z,61.90
2018-03-01T11:34:51.634Z,62.20
2018-03-01T11:37:22.589Z,62.40
2018-03-01T11:39:52.459Z,62.60
2018-03-01T11:42:22.250Z,62.60
2018-03-01T11:44:52.750Z,63.00
2018-03-01T11:47:22.430Z,63.00
2018-03-01T11:49:52.207Z,63.00
2018-03-01T11:52:23.629Z,63.80
2018-03-01T11:54:53.333Z,63.90
2018-03-01T11:57:23.436Z,64.00
2018-03-01T11:59:53.137Z,64.10
2018-03-01T12:02:22.942Z,64.00
2018-03-01T12:04:52.658Z,64.00
2018-03-01T12:07:22.842Z,63.90
2018-03-01T12:09:53.294Z,64.40
2018-03-01T12:12:22.981Z,64.50
2018-03-01T12:14:53.472Z,65.00
2018-03-01T12:17:23.154Z,65.00
2018-03-01T12:19:52.874Z,65.30
2018-03-01T12:22:22.655Z,65.70
2018-03-01T12:24:52.445Z,65.90
2018-03-01T12:27:23.025Z,66.40
2018-03-01T12:29:52.782Z,66.40
2018-03-01T12:32:23.229Z,66.60
2018-03-01T12:34:53.702Z,66.70
2018-03-01T12:37:23.456Z,66.60
2018-03-01T12:39:53.201Z,66.70
2018-03-01T12:42:22.948Z,66.80
2018-03-01T12:44:52.738Z,66.60
2018-03-01T12:47:22.424Z,66.70
2018-03-01T12:49:52.315Z,66.40
2018-03-01T12:52:22.173Z,66.10
2018-03-01T12:54:52.707Z,66.20
2018-03-01T12:57:22.891Z,66.30
2018-03-01T12:59:56.735Z,66.50
2018-03-01T13:02:26.617Z,66.50
2018-03-01T13:05:11.892Z,66.60
2018-03-01T13:07:41.799Z,66.40
2018-03-01T13:10:12.710Z,66.40
2018-03-01T13:12:43.422Z,66.70
2018-03-01T13:15:13.206Z,66.70
2018-03-01T13:17:43.900Z,67.10
2018-03-01T13:20:15.055Z,67.40
2018-03-01T13:22:44.923Z,67.30
2018-03-01T13:25:15.569Z,67.50
2018-03-01T13:27:46.307Z,68.10
2018-03-01T13:30:25.835Z,68.00
2018-03-01T13:32:56.582Z,68.10
2018-03-01T13:35:26.706Z,68.20
2018-03-01T13:37:58.181Z,68.70
2018-03-01T13:40:28.088Z,68.70
2018-03-01T13:42:57.941Z,68.90
2018-03-01T13:45:29.710Z,69.00
2018-03-01T13:48:01.996Z,69.10
2018-03-01T13:50:32.962Z,69.10
2018-03-01T13:53:02.879Z,69.10
2018-03-01T13:55:32.822Z,69.10
2018-03-01T13:58:03.071Z,69.10
2018-03-01T14:00:32.969Z,69.10
2018-03-01T14:03:02.843Z,69.80
2018-03-01T14:05:34.195Z,69.10
2018-03-01T14:08:04.255Z,69.40
2018-03-01T14:10:34.215Z,69.60
2018-03-01T14:13:06.714Z,69.70
2018-03-01T14:15:40.073Z,69.70
2018-03-01T14:18:15.775Z,69.80
2018-03-01T14:20:56.212Z,69.50
2018-03-01T14:23:32.405Z,69.40
2018-03-01T14:26:10.111Z,68.90
2018-03-01T14:28:55.071Z,68.90
2018-03-01T14:31:24.899Z,69.10
2018-03-01T14:33:55.561Z,69.20
2018-03-01T14:36:26.108Z,69.00
2018-03-01T14:38:55.817Z,68.90
2018-03-01T14:41:25.542Z,69.20
2018-03-01T14:43:55.846Z,69.20
2018-03-01T14:46:25.724Z,69.10
2018-03-01T14:48:55.438Z,69.20
2018-03-01T14:51:25.706Z,70.10
2018-03-01T14:53:55.411Z,69.40
2018-03-01T14:56:25.299Z,69.60
2018-03-01T14:58:55.832Z,69.60
2018-03-01T15:01:26.258Z,69.40
2018-03-01T15:03:56.758Z,70.00
2018-03-01T15:06:26.488Z,69.90
2018-03-01T15:08:57.861Z,70.30
2018-03-01T15:11:29.242Z,70.10
2018-03-01T15:13:59.738Z,70.10
2018-03-01T15:16:29.411Z,69.80
2018-03-01T15:18:59.362Z,69.90
2018-03-01T15:21:29.133Z,69.60
2018-03-01T15:23:58.886Z,69.50
2018-03-01T15:26:28.617Z,69.50
2018-03-01T15:28:59.103Z,69.60
2018-03-01T15:31:30.471Z,69.40
2018-03-01T15:34:01.176Z,69.40
2018-03-01T15:36:31.751Z,69.50
2018-03-01T15:39:01.410Z,69.40
2018-03-01T15:41:31.163Z,69.20
2018-03-01T15:44:00.918Z,69.10
2018-03-01T15:46:30.753Z,69.10
2018-03-01T15:49:01.678Z,69.60
2018-03-01T15:51:32.534Z,69.80
2018-03-01T15:54:03.081Z,69.70
2018-03-01T15:56:33.307Z,69.70
2018-03-01T15:59:04.732Z,69.70
2018-03-01T16:01:36.028Z,70.30
2018-03-01T16:04:05.742Z,70.20
2018-03-01T16:06:35.481Z,70.50
2018-03-01T16:09:06.413Z,70.50
2018-03-01T16:11:36.102Z,70.20
2018-03-01T16:14:05.879Z,70.20
2018-03-01T16:16:35.530Z,70.10
2018-03-01T16:19:05.240Z,70.00
2018-03-01T16:21:35.050Z,70.00
2018-03-01T16:24:04.764Z,70.20
2018-03-01T16:26:34.550Z,70.50
2018-03-01T16:29:04.306Z,70.60
2018-03-01T16:31:34.098Z,70.80
2018-03-01T16:34:04.158Z,70.70
2018-03-01T16:36:34.695Z,70.80
2018-03-01T16:39:04.562Z,70.80
2018-03-01T16:41:34.327Z,70.90
2018-03-01T16:44:03.977Z,70.90
2018-03-01T16:46:33.659Z,70.90
2018-03-01T16:49:05.999Z,70.90
2018-03-01T16:51:35.735Z,70.80
2018-03-01T16:54:06.257Z,71.00
2018-03-01T16:56:35.910Z,71.00
2018-03-01T16:59:05.569Z,71.00
2018-03-01T17:01:35.206Z,70.80
2018-03-01T17:04:04.918Z,70.90
2018-03-01T17:06:34.978Z,71.00
2018-03-01T17:09:05.818Z,71.30
2018-03-01T17:11:36.311Z,71.40
2018-03-01T17:14:06.122Z,71.40
2018-03-01T17:16:36.766Z,71.50
2018-03-01T17:19:06.467Z,71.60
2018-03-01T17:21:36.215Z,71.70
2018-03-01T17:24:07.356Z,71.80
2018-03-01T17:26:37.758Z,72.00
2018-03-01T17:29:07.589Z,72.00
2018-03-01T17:31:38.090Z,72.10
2018-03-01T17:34:07.894Z,72.10
2018-03-01T17:36:37.625Z,72.10
2018-03-01T17:39:07.326Z,72.10
2018-03-01T17:41:37.017Z,72.10
2018-03-01T17:44:07.501Z,72.00
2018-03-01T17:46:37.906Z,72.00
2018-03-01T17:49:07.637Z,72.00
2018-03-01T17:51:37.338Z,72.10
2018-03-01T17:54:07.864Z,72.20
2018-03-01T17:56:38.418Z,72.30
2018-03-01T17:59:08.190Z,72.30
2018-03-01T18:01:38.682Z,72.30
2018-03-01T18:04:08.444Z,72.30
2018-03-01T18:06:39.544Z,72.70
2018-03-01T18:09:09.233Z,72.70
2018-03-01T18:11:39.041Z,72.80
2018-03-01T18:14:08.952Z,72.80
2018-03-01T18:16:38.720Z,72.70
2018-03-01T18:19:09.727Z,73.50
2018-03-01T18:21:39.414Z,72.70
2018-03-01T18:24:09.102Z,72.80
2018-03-01T18:26:39.533Z,72.80
2018-03-01T18:29:10.246Z,72.70
2018-03-01T18:31:40.851Z,73.00
2018-03-01T18:34:11.470Z,73.00
2018-03-01T18:36:41.117Z,73.30
2018-03-01T18:39:11.646Z,73.60
2018-03-01T18:41:42.116Z,73.80
2018-03-01T18:44:11.829Z,73.70
2018-03-01T18:46:41.505Z,73.80
2018-03-01T18:49:12.013Z,74.00
2018-03-01T18:51:41.740Z,74.00
2018-03-01T18:54:12.170Z,74.10
2018-03-01T18:56:42.599Z,74.20
2018-03-01T18:59:13.093Z,74.20
2018-03-01T19:01:42.737Z,74.20
2018-03-01T19:04:13.246Z,74.00
2018-03-01T19:06:44.878Z,74.10
2018-03-01T19:09:14.763Z,74.00
2018-03-01T19:11:44.458Z,74.00
2018-03-01T19:14:14.182Z,73.90
2018-03-01T19:16:44.731Z,73.70
2018-03-01T19:19:14.436Z,73.60
2018-03-01T19:21:44.891Z,73.90
2018-03-01T19:24:15.558Z,74.00
2018-03-01T19:26:45.265Z,74.40
2018-03-01T19:29:15.173Z,74.30
2018-03-01T19:31:45.600Z,74.20
2018-03-01T19:34:15.972Z,74.30
2018-03-01T19:36:45.621Z,74.30
2018-03-01T19:39:15.459Z,74.30
2018-03-01T19:41:45.209Z,74.30
2018-03-01T19:44:14.967Z,74.30
2018-03-01T19:46:44.702Z,74.30
2018-03-01T19:49:14.402Z,74.40
2018-03-01T19:51:44.121Z,74.50
2018-03-01T19:54:13.850Z,74.60
2018-03-01T19:56:43.596Z,74.60
2018-03-01T19:59:13.264Z,74.60
2018-03-01T20:01:42.905Z,74.60
2018-03-01T20:04:12.598Z,74.50
2018-03-01T20:06:43.026Z,74.30
2018-03-01T20:09:12.691Z,74.30
2018-03-01T20:11:42.415Z,74.30
2018-03-01T20:14:12.089Z,74.30
2018-03-01T20:16:42.651Z,74.40
2018-03-01T20:19:12.385Z,74.50
2018-03-01T20:21:42.048Z,74.50
2018-03-01T20:24:12.494Z,74.60
2018-03-01T20:26:42.302Z,74.60
2018-03-01T20:29:12.421Z,74.70
2018-03-01T20:31:43.094Z,74.80
2018-03-01T20:34:12.746Z,74.70
2018-03-01T20:36:43.513Z,75.00
2018-03-01T20:39:13.151Z,75.00
2018-03-01T20:41:42.878Z,75.20
2018-03-01T20:44:13.953Z,75.20
2018-03-01T20:46:43.644Z,75.20
2018-03-01T20:49:14.173Z,75.10
2018-03-01T20:51:44.741Z,75.20
2018-03-01T20:54:14.463Z,75.10
2018-03-01T20:56:44.166Z,75.40
2018-03-01T20:59:14.126Z,75.30
2018-03-01T21:01:44.584Z,75.40
2018-03-01T21:04:14.364Z,75.40
2018-03-01T21:06:44.833Z,75.80
2018-03-01T21:09:15.122Z,75.70
2018-03-01T21:11:45.586Z,75.90
2018-03-01T21:14:15.253Z,75.80
2018-03-01T21:16:45.699Z,75.80
2018-03-01T21:19:15.366Z,75.80
2018-03-01T21:21:45.907Z,75.90
2018-03-01T21:24:15.602Z,76.10
2018-03-01T21:26:45.387Z,76.10
2018-03-01T21:29:15.155Z,76.10
2018-03-01T21:31:44.867Z,76.30
2018-03-01T21:34:15.387Z,76.30
2018-03-01T21:36:46.125Z,76.40
2018-03-01T21:39:16.677Z,76.40
2018-03-01T21:41:46.444Z,76.40
2018-03-01T21:44:16.129Z,76.40
2018-03-01T21:46:57.838Z,76.50
2018-03-01T21:49:27.508Z,76.40
2018-03-01T21:51:58.685Z,76.20
2018-03-01T21:54:29.286Z,76.10
2018-03-01T21:56:59.055Z,76.20
2018-03-01T21:59:29.519Z,76.30
2018-03-01T22:01:59.183Z,76.30
2018-03-01T22:04:28.857Z,76.40
2018-03-01T22:06:58.514Z,76.60
2018-03-01T22:09:28.964Z,76.90
2018-03-01T22:11:58.607Z,76.90
2018-03-01T22:14:29.105Z,76.70
2018-03-01T22:16:58.846Z,76.70
2018-03-01T22:19:28.554Z,76.60
2018-03-01T22:21:58.228Z,76.60
2018-03-01T22:24:27.966Z,76.80
2018-03-01T22:26:57.640Z,77.10
2018-03-01T22:29:27.346Z,77.30
2018-03-01T22:31:57.858Z,77.60
2018-03-01T22:34:29.070Z,77.50
2018-03-01T22:36:59.085Z,77.50
2018-03-01T22:39:28.761Z,78.00
2018-03-01T22:41:58.575Z,77.10
2018-03-01T22:44:29.180Z,77.10
2018-03-01T22:46:59.725Z,77.40
2018-03-01T22:49:29.410Z,77.30
2018-03-01T22:51:59.893Z,77.90
2018-03-01T22:54:29.654Z,77.80
2018-03-01T22:57:00.210Z,78.10
2018-03-01T22:59:30.949Z,78.10
2018-03-01T23:02:00.725Z,78.10
2018-03-01T23:04:31.144Z,78.00
2018-03-01T23:07:01.250Z,78.00
2018-03-01T23:09:30.889Z,78.00
2018-03-01T23:12:01.370Z,77.90
2018-03-01T23:14:31.139Z,77.80
2018-03-01T23:17:00.815Z,77.80
2018-03-01T23:19:31.561Z,77.80
2018-03-01T23:22:01.292Z,77.70
2018-03-01T23:24:31.102Z,77.50
2018-03-01T23:27:00.896Z,77.50
2018-03-01T23:29:31.361Z,77.70
2018-03-01T23:32:01.098Z,77.70
2018-03-01T23:34:30.801Z,77.80
2018-03-01T23:37:00.935Z,77.80
2018-03-01T23:39:30.638Z,77.70
2018-03-01T23:42:00.341Z,77.70
2018-03-01T23:44:30.186Z,77.70
2018-03-01T23:47:00.577Z,77.50
2018-03-01T23:49:30.229Z,78.30
2018-03-01T23:52:00.661Z,77.50
2018-03-01T23:54:31.156Z,77.60
2018-03-01T23:57:00.887Z,77.60
2018-03-01T23:59:31.355Z,77.10
